Time;durP1;ratioP1;P1;durP2;ratioP2;P2;SDS_P1;SDS_P2;PMS_P1;PMS_P2;Temp;Humidity;BMP_temperature;BMP_pressure;BME280_temperature;BME280_humidity;BME280_pressure;Samples;Min_cycle;Max_cycle;Signal;HPM_P1;HPM_P2
2023/07/25 00:00:10;;;;;;;6.22;2.50;;;17.00;99.90;;;17.51;71.79;99595.56;4936554;29;20039;-82
2023/07/25 00:02:37;;;;;;;8.02;2.60;;;17.00;99.90;;;17.49;71.65;99586.97;4947294;29;20047;-82
2023/07/25 00:05:05;;;;;;;5.97;2.60;;;17.00;99.90;;;17.50;71.93;99589.38;4941128;28;20047;-82
2023/07/25 00:07:32;;;;;;;7.38;2.47;;;16.90;99.90;;;17.50;72.03;99588.56;4943254;29;20150;-82
2023/07/25 00:10:00;;;;;;;7.97;2.58;;;16.90;99.90;;;17.50;72.17;99600.16;4939858;29;20133;-82
2023/07/25 00:12:27;;;;;;;5.70;2.10;;;16.90;99.90;;;17.50;72.06;99599.34;4943847;29;20124;-81
2023/07/25 00:14:54;;;;;;;5.65;2.30;;;17.00;99.90;;;17.49;71.95;99600.44;4944165;28;20183;-81
2023/07/25 00:17:23;;;;;;;5.45;2.50;;;17.00;99.90;;;17.48;71.93;99602.34;4933868;28;20047;-81
2023/07/25 00:19:50;;;;;;;4.38;2.20;;;17.00;99.90;;;17.47;71.87;99608.00;4939868;29;20469;-81
2023/07/25 00:22:17;;;;;;;5.57;2.25;;;16.90;99.90;;;17.46;71.90;99609.88;4936001;29;20453;-81
2023/07/25 00:24:45;;;;;;;6.47;2.40;;;16.90;99.90;;;17.45;72.10;99602.88;4947203;28;20094;-82
2023/07/25 00:27:12;;;;;;;10.77;2.60;;;16.90;99.90;;;17.45;72.09;99610.97;4935741;28;20416;-82
2023/07/25 00:29:39;;;;;;;5.20;2.30;;;16.90;99.90;;;17.42;71.98;99606.16;4939907;29;20043;-82
2023/07/25 00:32:08;;;;;;;9.07;2.85;;;16.90;99.90;;;17.44;71.93;99605.88;4942384;29;20090;-82
2023/07/25 00:34:36;;;;;;;10.50;2.47;;;16.90;99.90;;;17.43;71.79;99602.38;4927134;29;20047;-81
2023/07/25 00:37:04;;;;;;;6.57;2.95;;;16.90;99.90;;;17.44;71.88;99608.56;4928890;28;20470;-81
2023/07/25 00:39:31;;;;;;;5.93;2.35;;;16.90;99.90;;;17.42;71.90;99611.56;4941284;29;20078;-80
2023/07/25 00:41:59;;;;;;;6.13;2.40;;;16.90;99.90;;;17.42;71.90;99606.16;4950297;28;20055;-81
2023/07/25 00:44:26;;;;;;;6.07;2.10;;;16.90;99.90;;;17.45;71.75;99610.16;4944314;29;20083;-81
2023/07/25 00:46:53;;;;;;;5.45;2.35;;;16.90;99.90;;;17.43;71.69;99606.97;4939205;29;20040;-81
2023/07/25 00:49:21;;;;;;;6.68;2.80;;;16.90;99.90;;;17.45;71.73;99613.66;4939414;29;20117;-81
2023/07/25 00:51:49;;;;;;;7.20;2.70;;;16.90;99.90;;;17.41;71.73;99612.59;4947379;29;20071;-81
2023/07/25 00:54:16;;;;;;;7.43;2.90;;;16.90;99.90;;;17.40;71.79;99610.19;4944609;29;20186;-81
2023/07/25 00:56:44;;;;;;;6.00;2.30;;;16.80;99.90;;;17.40;72.06;99612.91;4940564;28;20106;-81
2023/07/25 00:59:12;;;;;;;6.35;2.60;;;16.90;99.90;;;17.40;72.19;99618.28;4938915;28;20131;-81
2023/07/25 01:01:39;;;;;;;5.15;2.10;;;16.90;99.90;;;17.39;71.86;99617.47;4939686;29;20133;-82
2023/07/25 01:04:06;;;;;;;8.18;2.70;;;16.80;99.90;;;17.39;71.91;99616.69;4935634;29;20102;-81
2023/07/25 01:06:35;;;;;;;7.35;2.38;;;16.90;99.90;;;17.39;71.89;99616.69;4942092;29;20056;-81
2023/07/25 01:09:04;;;;;;;5.35;2.20;;;16.90;99.90;;;17.37;72.10;99611.56;4947980;28;20551;-81
2023/07/25 01:11:31;;;;;;;7.75;2.67;;;16.80;99.90;;;17.38;72.23;99613.19;4942026;29;20063;-80
2023/07/25 01:13:59;;;;;;;5.57;2.05;;;16.90;99.90;;;17.38;72.20;99615.06;4934882;29;20068;-80
2023/07/25 01:16:28;;;;;;;6.22;2.25;;;16.90;99.90;;;17.36;72.05;99604.53;4924935;29;20083;-80
2023/07/25 01:18:56;;;;;;;7.38;2.33;;;16.80;99.90;;;17.33;72.06;99605.13;4938925;29;20050;-80
2023/07/25 01:21:23;;;;;;;6.43;2.38;;;16.80;99.90;;;17.33;71.81;99604.31;4937546;29;20043;-81
2023/07/25 01:23:51;;;;;;;5.60;2.20;;;16.80;99.90;;;17.32;72.02;99603.47;4933239;28;20083;-81
2023/07/25 01:26:20;;;;;;;8.43;2.42;;;16.80;99.90;;;17.32;71.85;99611.56;4938743;29;20135;-81
2023/07/25 01:28:47;;;;;;;6.22;2.72;;;16.80;99.90;;;17.32;72.00;99597.28;4935327;29;20073;-81
2023/07/25 01:31:15;;;;;;;7.40;2.40;;;16.80;99.90;;;17.32;71.94;99600.00;4939503;29;20575;-81
2023/07/25 01:33:43;;;;;;;6.95;2.50;;;16.80;99.90;;;17.31;71.92;99591.09;4933997;29;20138;-82
2023/07/25 01:36:10;;;;;;;5.45;2.33;;;16.80;99.90;;;17.30;71.90;99594.88;4932894;28;20115;-81
2023/07/25 01:38:37;;;;;;;5.82;2.40;;;16.80;99.90;;;17.30;71.90;99592.19;4936220;28;20051;-81
2023/07/25 01:41:04;;;;;;;7.80;2.58;;;16.80;99.90;;;17.30;71.62;99594.88;4940475;29;20445;-81
2023/07/25 01:43:33;;;;;;;6.30;2.53;;;16.80;99.90;;;17.23;71.15;99581.72;4932086;29;20050;-81
2023/07/25 01:46:00;;;;;;;5.47;2.63;;;16.70;99.90;;;17.23;71.85;99578.22;4954094;28;20153;-81
2023/07/25 01:48:27;;;;;;;7.15;2.83;;;16.70;99.90;;;17.24;71.86;99582.53;4932607;28;20048;-81
2023/07/25 01:50:54;;;;;;;6.22;2.53;;;16.70;99.90;;;17.25;72.09;99574.16;4934604;29;20593;-81
2023/07/25 01:53:22;;;;;;;8.23;2.75;;;16.70;99.90;;;17.24;71.94;99577.13;4933042;29;20048;-81
2023/07/25 01:55:49;;;;;;;7.53;2.63;;;16.70;99.90;;;17.22;72.05;99573.88;4933337;29;20493;-81
2023/07/25 01:58:16;;;;;;;6.30;2.75;;;16.70;99.90;;;17.22;71.93;99574.69;4942438;28;20047;-81
2023/07/25 02:00:45;;;;;;;7.50;2.72;;;16.70;99.90;;;17.23;71.94;99572.84;4927811;28;20409;-81
2023/07/25 02:03:15;;;;;;;7.68;2.90;;;16.70;99.90;;;17.21;71.75;99564.19;4942661;28;20429;-81
2023/07/25 02:05:42;;;;;;;9.57;2.90;;;16.60;99.90;;;17.20;71.67;99562.59;4940949;29;20114;-80
2023/07/25 02:08:13;;;;;;;7.45;3.20;;;16.60;99.90;;;17.17;71.65;99555.06;4939666;29;20142;-81
2023/07/25 02:10:41;;;;;;;5.35;2.55;;;16.70;99.90;;;17.17;71.43;99565.84;4931682;29;20523;-81
2023/07/25 02:13:08;;;;;;;7.13;2.80;;;16.60;99.90;;;17.16;71.36;99559.63;4940438;28;20047;-81
2023/07/25 02:15:36;;;;;;;6.20;2.60;;;16.60;99.90;;;17.15;71.11;99562.63;4939164;29;20043;-81
2023/07/25 02:18:04;;;;;;;8.55;3.03;;;16.60;99.90;;;17.14;71.37;99558.31;4937626;28;20440;-81
2023/07/25 02:20:32;;;;;;;6.32;3.05;;;16.60;99.90;;;17.13;71.23;99559.38;4938412;29;20051;-81
2023/07/25 02:22:59;;;;;;;8.90;2.75;;;16.50;99.90;;;17.10;71.12;99566.16;4937529;29;20039;-81
2023/07/25 02:25:29;;;;;;;8.10;3.00;;;16.50;99.90;;;17.10;71.14;99565.34;4937058;28;20460;-81
2023/07/25 02:27:56;;;;;;;10.73;3.33;;;16.50;99.90;;;17.08;71.13;99560.25;4942099;29;20131;-81
2023/07/25 02:30:23;;;;;;;8.60;3.22;;;16.50;99.90;;;17.07;71.05;99557.78;4929037;28;20472;-81
2023/07/25 02:32:50;;;;;;;7.70;2.97;;;16.50;99.90;;;17.06;71.20;99553.50;4935922;29;20074;-81
2023/07/25 02:35:19;;;;;;;9.85;3.38;;;16.50;99.90;;;17.05;70.98;99555.38;4921615;29;20052;-81
2023/07/25 02:37:47;;;;;;;6.75;3.35;;;16.50;99.90;;;17.06;70.96;99558.88;4936727;29;20091;-81
2023/07/25 02:40:14;;;;;;;7.53;2.90;;;16.50;99.90;;;17.03;71.07;99554.88;4933092;29;20588;-81
2023/07/25 02:42:43;;;;;;;5.85;2.67;;;16.50;99.90;;;17.01;71.04;99550.84;4936913;29;20056;-81
2023/07/25 02:45:11;;;;;;;8.02;3.22;;;16.40;99.90;;;16.98;71.12;99553.00;4937094;29;20138;-81
2023/07/25 02:47:38;;;;;;;7.30;3.08;;;16.40;99.90;;;16.96;70.81;99549.75;4923529;28;20088;-81
2023/07/25 02:50:07;;;;;;;6.13;3.22;;;16.40;99.90;;;16.96;70.57;99544.38;4937097;28;20497;-81
2023/07/25 02:52:35;;;;;;;9.18;3.15;;;16.40;99.60;;;16.92;70.35;99537.13;4938782;29;20048;-81
2023/07/25 02:55:03;;;;;;;6.22;2.97;;;16.30;99.50;;;16.89;70.06;99535.81;4943395;29;20047;-81
2023/07/25 02:57:30;;;;;;;9.65;3.20;;;16.30;99.30;;;16.87;70.25;99546.03;4938465;28;20044;-81
2023/07/25 02:59:58;;;;;;;9.38;3.40;;;16.30;99.40;;;16.83;69.92;99542.25;4942836;29;20043;-81
2023/07/25 03:02:25;;;;;;;6.07;3.10;;;16.20;99.20;;;16.83;69.96;99544.97;4946966;29;20484;-81
2023/07/25 03:04:52;;;;;;;7.20;2.92;;;16.20;99.20;;;16.78;69.87;99553.06;4947724;29;20074;-81
2023/07/25 03:07:19;;;;;;;9.60;3.40;;;16.10;99.20;;;16.76;69.94;99554.44;4939037;28;20047;-81
2023/07/25 03:09:48;;;;;;;6.28;3.03;;;16.10;99.20;;;16.75;69.70;99559.00;4938862;29;20103;-81
2023/07/25 03:12:15;;;;;;;5.88;2.97;;;16.10;99.10;;;16.74;69.49;99554.72;4932057;29;20048;-81
2023/07/25 03:14:43;;;;;;;8.20;3.47;;;16.10;98.90;;;16.73;69.32;99558.47;4936514;29;20130;-81
2023/07/25 03:17:10;;;;;;;7.63;3.00;;;16.10;98.90;;;16.71;69.36;99555.22;4939773;28;20052;-81
2023/07/25 03:19:37;;;;;;;5.57;3.00;;;16.10;98.90;;;16.69;69.38;99560.09;4942335;28;20048;-81
2023/07/25 03:22:05;;;;;;;6.55;2.92;;;16.10;98.80;;;16.67;69.22;99552.25;4978076;28;20057;-81
2023/07/25 03:24:32;;;;;;;7.43;3.20;;;16.00;98.70;;;16.66;69.05;99552.53;4960744;28;20162;-81
2023/07/25 03:27:01;;;;;;;8.35;3.00;;;16.00;98.60;;;16.65;69.09;99557.13;4950801;28;20074;-81
2023/07/25 03:29:28;;;;;;;8.25;3.40;;;16.00;98.60;;;16.64;68.89;99558.22;4982340;28;20073;-81
2023/07/25 03:31:55;;;;;;;8.65;2.85;;;16.00;98.50;;;16.63;68.68;99556.56;4956083;28;20043;-81
2023/07/25 03:34:22;;;;;;;7.85;3.10;;;16.00;98.50;;;16.62;68.88;99552.28;4925085;28;20115;-81
2023/07/25 03:36:50;;;;;;;8.43;3.15;;;16.00;98.50;;;16.62;68.93;99548.78;4965851;28;20047;-81
2023/07/25 03:39:17;;;;;;;7.53;3.28;;;16.00;98.60;;;16.62;69.15;99559.53;4966314;28;20045;-81
2023/07/25 03:41:44;;;;;;;5.43;2.92;;;16.00;98.80;;;16.62;69.28;99551.47;4959738;28;20068;-81
2023/07/25 03:44:17;;;;;;;10.55;3.53;;;16.00;98.90;;;16.63;69.58;99553.06;4957503;28;20043;-81
2023/07/25 03:46:44;;;;;;;7.88;3.10;;;16.00;99.10;;;16.63;69.63;99550.38;4975701;28;20137;-81
2023/07/25 03:49:12;;;;;;;8.68;3.05;;;16.00;99.30;;;16.63;69.77;99555.78;4961914;28;20523;-81
2023/07/25 03:51:39;;;;;;;8.18;3.17;;;16.00;99.30;;;16.63;70.02;99551.19;4969915;28;20051;-81
2023/07/25 03:54:07;;;;;;;7.68;3.38;;;16.00;99.50;;;16.63;69.96;99555.78;4940337;29;20128;-81
2023/07/25 03:56:35;;;;;;;6.97;3.22;;;16.00;99.50;;;16.60;70.09;99551.75;4939854;29;20058;-82
2023/07/25 03:59:02;;;;;;;6.35;3.10;;;16.00;99.70;;;16.60;70.29;99551.75;4948130;29;20122;-81
2023/07/25 04:01:31;;;;;;;8.50;3.10;;;16.00;99.80;;;16.62;70.36;99551.47;4933956;29;20489;-81
2023/07/25 04:03:59;;;;;;;8.88;3.20;;;16.00;99.70;;;16.62;70.47;99548.78;4941226;29;20505;-80
2023/07/25 04:06:26;;;;;;;6.93;3.13;;;16.00;99.80;;;16.61;70.29;99550.66;4947404;28;20162;-81
2023/07/25 04:08:53;;;;;;;6.43;3.00;;;16.00;99.70;;;16.61;70.43;99557.94;4944249;28;20079;-81
2023/07/25 04:11:20;;;;;;;8.40;3.30;;;16.00;99.90;;;16.61;70.46;99560.63;4943228;28;20440;-81
2023/07/25 04:13:47;;;;;;;9.90;3.38;;;16.00;99.90;;;16.61;70.72;99557.94;4934095;28;20039;-81
2023/07/25 04:16:15;;;;;;;6.15;3.30;;;16.00;99.90;;;16.60;71.00;99559.81;4950515;29;20134;-81
2023/07/25 04:18:43;;;;;;;6.85;3.00;;;16.00;99.90;;;16.60;71.01;99550.94;4933548;29;20043;-81
2023/07/25 04:21:10;;;;;;;6.55;3.05;;;16.00;99.90;;;16.60;71.23;99543.69;4942712;28;20139;-81
2023/07/25 04:23:38;;;;;;;6.00;3.00;;;16.00;99.90;;;16.59;71.12;99541.25;4945148;29;20055;-81
2023/07/25 04:26:05;;;;;;;8.80;3.78;;;16.00;99.90;;;16.58;71.25;99542.31;4929376;28;20118;-81
2023/07/25 04:28:32;;;;;;;6.63;3.40;;;16.00;99.90;;;16.58;71.33;99545.81;4942407;28;20047;-81
2023/07/25 04:30:59;;;;;;;5.53;3.60;;;16.00;99.90;;;16.58;71.17;99545.03;4940642;29;20051;-81
2023/07/25 04:33:27;;;;;;;7.22;3.60;;;16.00;99.90;;;16.58;71.18;99542.31;4936570;29;20107;-80
2023/07/25 04:35:55;;;;;;;6.00;3.42;;;16.00;99.90;;;16.58;71.26;99542.31;4931587;29;20071;-81
2023/07/25 04:38:22;;;;;;;4.97;3.28;;;16.00;99.90;;;16.56;71.12;99539.91;4938513;29;20740;-81
2023/07/25 04:40:50;;;;;;;5.93;3.45;;;16.00;99.90;;;16.56;71.04;99541.81;4939385;28;20040;-81
2023/07/25 04:43:17;;;;;;;9.02;3.20;;;16.00;99.90;;;16.55;71.04;99548.28;4935257;29;20509;-81
2023/07/25 04:45:44;;;;;;;6.93;3.50;;;16.00;99.90;;;16.54;70.96;99547.44;4931297;28;20412;-81
2023/07/25 04:48:11;;;;;;;7.57;3.67;;;16.00;99.90;;;16.54;70.87;99539.38;4945314;28;20567;-81
2023/07/25 04:50:39;;;;;;;12.20;3.65;;;16.00;99.90;;;16.54;70.70;99544.75;4938200;29;20103;-81
2023/07/25 04:53:07;;;;;;;5.72;3.65;;;16.00;99.90;;;16.54;70.80;99536.66;4932927;29;20408;-81
2023/07/25 04:55:34;;;;;;;12.32;3.72;;;16.00;99.90;;;16.56;70.81;99547.19;4928575;29;20714;-81
2023/07/25 04:58:02;;;;;;;9.60;3.65;;;16.00;99.90;;;16.58;70.68;99548.50;4927614;29;20159;-81
2023/07/25 05:00:31;;;;;;;7.95;3.90;;;16.00;99.90;;;16.57;70.97;99546.09;4937458;29;20142;-81
2023/07/25 05:02:58;;;;;;;8.55;4.30;;;16.00;99.90;;;16.57;71.12;99546.91;4931721;28;20138;-80
2023/07/25 05:05:25;;;;;;;13.50;4.30;;;16.00;99.90;;;16.63;71.29;99545.81;4943851;29;20411;-81
2023/07/25 05:07:52;;;;;;;10.10;3.88;;;16.10;99.90;;;16.74;71.31;99546.63;4928250;29;20078;-81
2023/07/25 05:10:21;;;;;;;9.57;4.50;;;16.20;99.90;;;16.85;71.28;99552.78;4936758;29;20151;-80
2023/07/25 05:12:48;;;;;;;10.45;4.50;;;16.30;99.90;;;16.90;70.84;99550.88;4933221;29;20441;-81
2023/07/25 05:15:16;;;;;;;11.07;4.40;;;16.40;99.50;;;16.90;70.85;99555.47;4938754;29;20067;-82
2023/07/25 05:17:43;;;;;;;8.85;4.68;;;16.40;99.50;;;16.91;70.67;99557.88;4938581;29;20040;-81
2023/07/25 05:20:11;;;;;;;9.10;4.70;;;16.50;99.30;;;16.89;70.63;99560.03;4940149;29;20079;-82
2023/07/25 05:22:38;;;;;;;8.65;4.40;;;16.50;99.50;;;16.94;70.76;99557.31;4930408;29;20043;-82
2023/07/25 05:25:06;;;;;;;13.43;4.70;;;16.50;99.40;;;16.97;70.95;99555.97;4938330;29;20552;-82
2023/07/25 05:27:35;;;;;;;10.80;4.80;;;16.60;99.40;;;17.09;70.63;99553.75;4942148;28;20078;-82
2023/07/25 05:30:03;;;;;;;11.05;4.95;;;16.70;98.90;;;17.23;70.84;99564.75;4938265;29;20127;-82
2023/07/25 05:32:30;;;;;;;10.27;5.57;;;16.90;99.20;;;17.38;70.43;99561.97;4937591;28;20042;-81
2023/07/25 05:34:57;;;;;;;13.68;5.28;;;17.10;98.40;;;17.50;69.64;99567.81;4944873;29;20457;-81
2023/07/25 05:37:35;;;;;;;11.48;5.25;;;17.20;97.50;;;17.61;69.34;99548.88;4940927;28;20490;-82
2023/07/25 05:40:04;;;;;;;14.80;5.20;;;17.40;96.80;;;17.68;68.72;99543.97;4936103;29;20126;-82
2023/07/25 05:42:33;;;;;;;10.27;5.60;;;17.50;96.30;;;17.72;69.89;99551.22;4937647;29;20048;-82
2023/07/25 05:45:01;;;;;;;13.45;6.50;;;17.60;97.20;;;17.82;70.17;99547.69;4942506;29;20473;-82
2023/07/25 05:47:28;;;;;;;13.55;5.57;;;17.70;97.00;;;17.93;69.35;99551.91;4946127;28;20118;-82
2023/07/25 05:49:56;;;;;;;18.30;5.50;;;17.90;96.40;;;18.02;69.02;99549.41;4934050;29;20035;-82
2023/07/25 05:52:23;;;;;;;14.88;4.82;;;17.90;95.80;;;17.99;66.50;99544.56;4933059;29;20518;-82
2023/07/25 05:54:51;;;;;;;11.98;4.00;;;17.90;93.00;;;18.07;66.85;99552.06;4938664;29;20147;-82
2023/07/25 05:57:19;;;;;;;7.95;3.60;;;18.00;93.90;;;18.20;68.17;99545.19;4937160;29;20043;-82
2023/07/25 05:59:47;;;;;;;12.65;4.53;;;18.20;94.50;;;18.25;67.83;99545.13;4944522;28;20067;-82
2023/07/25 06:02:16;;;;;;;19.48;4.70;;;18.20;94.40;;;18.26;66.64;99562.97;4936280;29;20043;-83
2023/07/25 06:04:46;;;;;;;15.02;5.40;;;18.20;93.00;;;18.40;67.27;99553.13;4941069;28;20055;-82
2023/07/25 06:07:14;;;;;;;13.27;4.60;;;18.50;93.40;;;18.44;66.57;99551.44;4933151;29;20077;-82
2023/07/25 06:09:41;;;;;;;12.10;4.30;;;18.50;92.90;;;18.49;67.43;99548.66;4936227;29;20047;-81
2023/07/25 06:12:09;;;;;;;12.77;4.60;;;18.50;93.30;;;18.48;64.68;99547.06;4938769;29;20122;-82
2023/07/25 06:14:37;;;;;;;12.18;4.30;;;18.50;90.90;;;18.38;65.90;99546.38;4942509;28;20501;-82
2023/07/25 06:17:06;;;;;;;11.68;4.18;;;18.40;91.80;;;18.21;64.88;99550.31;4933527;29;20040;-82
2023/07/25 06:19:33;;;;;;;13.82;4.50;;;18.10;90.80;;;18.10;65.79;99556.06;4936271;28;20078;-81
2023/07/25 06:22:00;;;;;;;10.55;3.50;;;17.90;92.00;;;18.00;64.22;99556.97;4943478;28;20416;-82
2023/07/25 06:24:28;;;;;;;9.95;3.80;;;17.80;91.20;;;17.87;65.76;99566.53;4936436;29;20167;-82
2023/07/25 06:26:55;;;;;;;13.43;3.83;;;17.60;92.80;;;17.83;66.37;99568.16;4935849;28;20067;-82
2023/07/25 06:29:22;;;;;;;12.82;3.50;;;17.60;93.40;;;17.78;65.44;99579.00;4939565;28;20493;-82
2023/07/25 06:31:49;;;;;;;11.48;3.40;;;17.50;92.80;;;17.73;65.83;99579.84;4948795;28;20489;-82
2023/07/25 06:34:18;;;;;;;8.07;3.10;;;17.40;93.20;;;17.71;66.84;99575.75;4944223;28;20046;-82
2023/07/25 06:36:45;;;;;;;10.00;3.22;;;17.40;94.40;;;17.70;66.77;99571.47;4937325;29;20125;-81
2023/07/25 06:39:12;;;;;;;11.07;3.10;;;17.40;94.60;;;17.72;66.61;99578.19;4930024;28;20040;-82
2023/07/25 06:41:40;;;;;;;9.68;2.72;;;17.40;94.20;;;17.80;66.50;99576.81;4941897;28;20035;-82
2023/07/25 06:44:12;;;;;;;10.55;3.20;;;17.40;94.20;;;17.93;66.07;99583.47;4937321;28;20043;-81
2023/07/25 06:46:39;;;;;;;11.93;3.13;;;17.70;93.70;;;18.02;64.94;99571.81;4926880;29;20075;-82
2023/07/25 06:49:07;;;;;;;9.70;2.90;;;17.80;92.10;;;18.17;65.09;99589.75;4946536;28;20091;-82
2023/07/25 06:51:35;;;;;;;11.15;3.00;;;18.10;91.40;;;18.28;65.28;99585.06;4931257;29;20102;-82
2023/07/25 06:54:02;;;;;;;9.93;3.08;;;18.30;91.50;;;18.35;63.85;99585.56;4937880;29;20046;-82
2023/07/25 06:56:30;;;;;;;16.45;3.33;;;18.40;90.20;;;18.44;64.52;99578.44;4933406;28;20138;-81
2023/07/25 06:58:57;;;;;;;10.60;3.03;;;18.50;90.40;;;18.48;63.02;99574.06;4931364;29;20047;-81
2023/07/25 07:01:27;;;;;;;11.77;3.40;;;18.70;88.80;;;18.56;63.62;99579.97;4935143;29;20066;-81
2023/07/25 07:03:54;;;;;;;10.53;3.13;;;18.70;89.10;;;18.63;64.41;99585.81;4928503;29;20404;-81
2023/07/25 07:06:22;;;;;;;13.70;2.83;;;18.80;90.20;;;18.67;63.86;99586.84;4935439;29;20310;-81
2023/07/25 07:08:50;;;;;;;10.07;3.60;;;18.90;89.40;;;18.77;64.55;99592.97;4938050;29;20045;-81
2023/07/25 07:11:18;;;;;;;8.77;2.83;;;19.00;89.50;;;18.85;60.02;99582.66;4924691;29;20106;-81
2023/07/25 07:13:45;;;;;;;15.30;3.30;;;19.10;85.30;;;18.83;62.16;99596.44;4926694;29;20051;-81
2023/07/25 07:16:12;;;;;;;11.98;3.13;;;19.00;87.60;;;18.88;61.21;99588.25;4932730;28;20110;-81
2023/07/25 07:18:40;;;;;;;13.73;3.22;;;19.00;86.20;;;18.82;61.04;99594.00;4935434;29;20297;-81
2023/07/25 07:21:07;;;;;;;8.77;2.75;;;18.90;86.00;;;18.86;62.15;99590.47;4946548;29;20039;-81
2023/07/25 07:23:35;;;;;;;15.68;3.50;;;19.00;87.50;;;19.01;64.31;99592.19;4940084;28;20039;-82
2023/07/25 07:26:03;;;;;;;7.55;2.80;;;19.10;89.70;;;19.14;62.58;99593.38;4936040;28;20051;-82
2023/07/25 07:28:30;;;;;;;10.23;2.65;;;19.20;87.40;;;19.26;62.89;99599.16;4935390;29;20075;-81
2023/07/25 07:30:58;;;;;;;7.55;2.60;;;19.40;88.10;;;19.21;58.29;99591.13;4932252;29;20039;-81
2023/07/25 07:33:26;;;;;;;18.75;3.13;;;19.30;82.70;;;19.14;59.90;99602.28;4941147;28;20543;-81
2023/07/25 07:35:53;;;;;;;10.27;2.65;;;19.20;84.90;;;19.18;59.13;99595.22;4944716;28;20035;-80
2023/07/25 07:38:21;;;;;;;9.38;2.53;;;19.30;83.90;;;19.34;61.77;99595.03;4940291;29;20071;-80
2023/07/25 07:40:48;;;;;;;7.60;2.30;;;19.50;86.80;;;19.17;56.85;99593.59;4943361;28;20040;-80
2023/07/25 07:43:17;;;;;;;8.75;2.60;;;19.30;81.30;;;19.01;59.48;99587.56;4940110;29;20079;-80
2023/07/25 07:45:44;;;;;;;8.45;2.20;;;19.00;83.80;;;18.91;58.75;99589.59;4940938;29;20047;-80
2023/07/25 07:48:11;;;;;;;9.40;2.55;;;18.90;83.50;;;18.99;58.22;99586.28;4936096;29;20039;-80
2023/07/25 07:50:38;;;;;;;11.90;2.28;;;19.00;83.10;;;19.02;56.82;99589.19;4939521;29;20039;-80
2023/07/25 07:53:06;;;;;;;13.32;2.35;;;19.00;80.70;;;19.02;55.60;99588.38;4932526;28;20071;-80
2023/07/25 07:55:34;;;;;;;10.98;2.40;;;19.00;80.20;;;19.01;55.95;99590.28;4946166;29;20169;-80
2023/07/25 07:58:01;;;;;;;6.70;2.10;;;19.00;80.00;;;19.00;56.42;99588.66;4938447;29;20119;-80
2023/07/25 08:00:32;;;;;;;6.70;2.10;;;19.00;80.60;;;18.96;56.29;99590.34;4934774;29;20071;-80
2023/07/25 08:02:59;;;;;;;7.85;2.40;;;18.90;80.60;;;18.87;55.72;99597.47;4932508;29;20142;-80
2023/07/25 08:05:27;;;;;;;6.95;2.08;;;18.80;79.90;;;18.85;57.45;99594.25;4940923;29;20035;-80
2023/07/25 08:07:54;;;;;;;14.63;2.90;;;18.70;81.80;;;18.82;58.43;99597.53;4947267;28;20043;-80
2023/07/25 08:10:21;;;;;;;6.97;2.13;;;18.70;83.00;;;18.72;57.12;99594.94;4931813;29;20051;-80
2023/07/25 08:12:49;;;;;;;8.75;2.20;;;18.60;81.70;;;18.70;56.84;99595.22;4942604;29;20047;-80
2023/07/25 08:15:16;;;;;;;7.90;2.20;;;18.60;81.60;;;18.72;57.25;99605.75;4950338;28;20070;-80
2023/07/25 08:17:45;;;;;;;6.60;2.10;;;18.60;81.80;;;18.76;59.78;99601.38;4945925;28;20039;-80
2023/07/25 08:20:13;;;;;;;7.25;2.25;;;18.60;85.30;;;18.70;57.16;99595.22;4937402;28;20046;-82
2023/07/25 08:22:40;;;;;;;9.68;2.47;;;18.60;82.00;;;18.67;57.91;99597.66;4935939;29;20133;-81
2023/07/25 08:25:09;;;;;;;11.25;2.60;;;18.60;82.70;;;18.71;61.31;99607.63;4931831;29;20051;-81
2023/07/25 08:27:36;;;;;;;6.95;2.33;;;18.60;86.50;;;18.68;59.97;99605.50;4939975;29;20061;-85
2023/07/25 08:30:04;;;;;;;8.10;2.53;;;18.60;85.30;;;18.70;61.39;99607.94;4952072;28;20047;-82
2023/07/25 08:32:32;;;;;;;11.48;2.90;;;18.60;86.60;;;18.65;60.47;99600.66;4939031;28;20384;-86
2023/07/25 08:35:01;;;;;;;12.00;3.03;;;18.50;85.90;;;18.61;58.38;99604.22;4955468;28;20036;-83
2023/07/25 08:37:28;;;;;;;8.82;2.85;;;18.50;83.80;;;18.55;58.91;99610.75;4944848;29;20048;-83
2023/07/25 08:39:55;;;;;;;7.72;2.40;;;18.40;84.10;;;18.52;60.09;99621.03;4947146;28;20043;-84
2023/07/25 08:42:26;;;;;;;7.32;2.25;;;18.30;85.70;;;18.49;58.80;99608.06;4951601;28;20513;-84
2023/07/25 08:44:54;;;;;;;7.68;2.20;;;18.30;84.30;;;18.49;60.54;99615.38;4940621;29;20046;-83
2023/07/25 08:47:27;;;;;;;6.60;2.60;;;18.20;86.10;;;18.48;60.61;99613.78;4935431;29;20079;-83
2023/07/25 08:49:57;;;;;;;8.15;2.45;;;18.20;86.90;;;18.50;62.06;99620.50;4959010;28;20047;-84
2023/07/25 08:56:48;;;;;;;9.68;3.45;;;18.30;88.70;;;18.58;63.35;99620.97;4892444;29;20297;-84
2023/07/25 08:59:16;;;;;;;8.75;2.65;;;18.40;89.10;;;18.56;61.66;99629.38;4888337;29;20040;-83
2023/07/25 09:01:44;;;;;;;15.27;2.85;;;18.40;87.30;;;18.57;61.20;99628.28;4931687;29;20150;-84
2023/07/25 09:04:13;;;;;;;6.70;2.50;;;18.50;86.70;;;18.60;61.91;99635.81;4937356;29;20833;-84
2023/07/25 09:06:40;;;;;;;11.80;2.65;;;18.50;87.90;;;18.61;60.81;99633.91;4968878;23;20046;-85
2023/07/25 09:09:08;;;;;;;9.15;2.50;;;18.50;85.90;;;18.60;60.57;99625.00;4986397;28;20070;-84
2023/07/25 09:11:35;;;;;;;8.43;2.25;;;18.50;85.70;;;18.62;59.49;99630.13;4963328;28;20048;-84
2023/07/25 09:14:04;;;;;;;10.00;2.25;;;18.50;85.00;;;18.70;60.29;99629.53;4989569;28;20137;-85
2023/07/25 09:16:32;;;;;;;7.47;2.40;;;18.60;85.80;;;18.78;60.16;99618.09;4983572;28;20082;-84
2023/07/25 09:19:00;;;;;;;17.65;2.47;;;18.70;85.30;;;18.83;60.09;99623.44;4992300;28;20046;-84
2023/07/25 09:21:28;;;;;;;59.35;3.90;;;18.80;85.30;;;18.91;58.83;99620.13;4990110;28;20121;-84
2023/07/25 09:23:58;;;;;;;23.77;3.75;;;19.00;83.50;;;18.99;60.20;99622.19;4984489;28;20096;-82
2023/07/25 09:26:26;;;;;;;7.05;2.03;;;19.10;85.00;;;19.04;58.94;99630.25;4982188;28;20055;-84
2023/07/25 09:28:56;;;;;;;7.40;2.00;;;19.10;82.90;;;19.08;58.50;99626.94;4990923;28;20043;-84
2023/07/25 09:31:27;;;;;;;14.00;2.33;;;19.20;82.70;;;19.16;58.06;99623.63;4991826;28;20042;-83
2023/07/25 09:33:56;;;;;;;8.30;2.20;;;19.20;81.60;;;19.21;57.11;99620.84;4994899;28;20137;-83
2023/07/25 09:36:24;;;;;;;7.55;2.00;;;19.30;81.40;;;19.18;54.09;99626.84;4987661;28;20136;-83
2023/07/25 09:38:53;;;;;;;5.00;1.90;;;19.20;77.40;;;19.13;54.00;99627.72;4994171;28;20171;-84
2023/07/25 09:41:23;;;;;;;7.80;2.80;;;19.20;77.50;;;19.12;56.00;99623.38;4992776;28;20094;-84
2023/07/25 09:43:51;;;;;;;6.78;2.33;;;19.10;80.00;;;19.23;56.15;99621.38;4988665;28;20101;-84
2023/07/25 09:46:19;;;;;;;7.38;2.08;;;19.40;79.60;;;19.28;55.44;99624.84;4991282;28;20042;-84
2023/07/25 09:48:53;;;;;;;8.15;2.00;;;19.50;79.00;;;19.32;55.52;99629.63;4979677;28;20047;-84
2023/07/25 09:51:20;;;;;;;7.55;2.00;;;19.60;78.70;;;19.34;55.30;99628.28;4992766;28;20053;-84
2023/07/25 09:53:53;;;;;;;9.27;2.30;;;19.60;78.20;;;19.40;56.90;99629.81;4994742;28;20117;-84
2023/07/25 09:56:23;;;;;;;12.07;2.35;;;19.60;79.80;;;19.42;54.85;99627.63;4993355;28;20125;-84
2023/07/25 09:58:51;;;;;;;5.32;1.90;;;19.60;77.50;;;19.24;52.63;99623.78;4992477;28;20407;-84
2023/07/25 10:01:19;;;;;;;9.77;2.10;;;19.40;75.10;;;19.21;55.02;99623.56;4993834;28;20056;-84
2023/07/25 10:03:48;;;;;;;8.88;3.17;;;19.30;77.80;;;19.15;54.10;99617.41;4990333;28;20135;-84
2023/07/25 10:06:16;;;;;;;6.78;2.33;;;19.20;77.40;;;19.09;55.98;99621.28;4967132;28;20142;-84
2023/07/25 10:08:44;;;;;;;7.20;2.45;;;19.10;79.60;;;19.07;57.43;99631.56;4994554;28;20042;-84
2023/07/25 10:11:13;;;;;;;7.43;2.30;;;19.00;81.30;;;18.99;56.01;99629.50;4999171;28;20030;-84
2023/07/25 10:13:42;;;;;;;10.20;2.50;;;18.90;80.00;;;18.92;56.73;99627.13;4997477;28;20854;-84
2023/07/25 10:16:14;;;;;;;8.10;2.53;;;18.80;80.30;;;18.83;56.79;99625.34;4996776;28;20053;-84
2023/07/25 10:18:41;;;;;;;;;;;18.70;80.80;;;18.76;57.52;99628.41;4993487;28;20142;-84
2023/07/25 10:21:12;;;;;;;7.95;2.50;;;18.60;81.80;;;18.67;57.39;99630.06;4987982;28;19930;-84
2023/07/25 10:23:40;;;;;;;;;;;18.50;81.60;;;18.64;58.58;99639.56;4979311;28;20070;-85